sim
Sign-in with your pilot id or email,
or register
Callsign
Passwort

Schedule Details

Flight Number: OEO6213
Departure: Fuerteventura Airport (GCFV) at 16:15
Arrival: Zurich Airport (LSZH) at 20:30

Weather Information
Getting current METAR information for GCFV 211700Z 05017KT CAVOK 25/20 Q1014
Getting current METAR information for LSZH 211720Z 06005KT 030V100 9999 BKN048 19/11 Q1025 NOSIG

Schedule Frequency

Route Map